Time;durP1;ratioP1;P1;durP2;ratioP2;P2;SDS_P1;SDS_P2;PMS_P1;PMS_P2;Temp;Humidity;BMP_temperature;BMP_pressure;BME280_temperature;BME280_humidity;BME280_pressure;Samples;Min_cycle;Max_cycle;Signal;HPM_P1;HPM_P2
2022/03/04 00:01:24;;;;;;;;;;;;;;;6.87;37.87;99702.44;4394072;32;19982;-72
2022/03/04 00:03:51;;;;;;;;;;;;;;;6.83;38.17;99699.72;4400670;32;20019;-72
2022/03/04 00:06:18;;;;;;;;;;;;;;;6.86;37.22;99705.84;4400443;32;20336;-73
2022/03/04 00:08:44;;;;;;;;;;;;;;;6.95;37.40;99718.94;4394733;32;19990;-73
2022/03/04 00:11:12;;;;;;;;;;;;;;;6.92;36.92;99711.16;4386632;32;20316;-73
2022/03/04 00:13:39;;;;;;;;;;;;;;;6.78;37.44;99699.59;4401305;32;19966;-74
2022/03/04 00:16:07;;;;;;;;;;;;;;;6.97;37.29;99708.72;4397592;32;19986;-73
2022/03/04 00:18:34;;;;;;;;;;;;;;;6.97;37.23;99709.56;4392892;32;20021;-73
2022/03/04 00:21:02;;;;;;;;;;;;;;;7.09;36.79;99703.91;4385921;32;19986;-73
2022/03/04 00:23:28;;;;;;;;;;;;;;;6.91;36.81;99709.41;4386524;32;19978;-72
2022/03/04 00:25:56;;;;;;;;;;;;;;;6.99;36.74;99707.94;4392670;32;19975;-72
2022/03/04 00:28:23;;;;;;;;;;;;;;;7.10;36.94;99707.34;4400861;32;19978;-72
2022/03/04 00:30:50;;;;;;;;;;;;;;;7.15;37.15;99703.22;4400433;32;20022;-72
2022/03/04 00:33:17;;;;;;;;;;;;;;;7.26;36.34;99706.94;4384653;32;19997;-72
2022/03/04 00:35:44;;;;;;;;;;;;;;;7.17;35.42;99701.53;4397756;32;20000;-72
2022/03/04 00:38:10;;;;;;;;;;;;;;;7.11;35.78;99696.22;4392406;32;20004;-71
2022/03/04 00:40:37;;;;;;;;;;;;;;;7.34;35.33;99695.16;4387645;32;19983;-72
2022/03/04 00:43:04;;;;;;;;;;;;;;;7.29;36.36;99696.72;4396755;32;19983;-73
2022/03/04 00:45:31;;;;;;;;;;;;;;;7.34;36.93;99695.16;4400525;32;19997;-73
2022/03/04 00:47:58;;;;;;;;;;;;;;;7.25;37.67;99691.47;4420773;32;19990;-73
2022/03/04 00:50:24;;;;;;;;;;;;;;;7.22;37.23;99689.66;4392259;32;19991;-72
2022/03/04 00:52:51;;;;;;;;;;;;;;;7.25;36.95;99692.34;4414259;32;20125;-72
2022/03/04 00:55:18;;;;;;;;;;;;;;;7.12;38.13;99692.84;4402013;32;19983;-74
2022/03/04 00:57:45;;;;;;;;;;;;;;;7.38;37.22;99688.37;4397440;32;20032;-73
2022/03/04 01:00:12;;;;;;;;;;;;;;;7.19;36.90;99694.75;4392099;32;19997;-73
2022/03/04 01:02:40;;;;;;;;;;;;;;;7.43;37.52;99691.94;4396522;32;19993;-72
2022/03/04 01:05:07;;;;;;;;;;;;;;;7.45;36.76;99693.72;4424477;32;20053;-72
2022/03/04 01:07:35;;;;;;;;;;;;;;;7.16;36.85;99689.50;4400714;32;20327;-72
2022/03/04 01:10:02;;;;;;;;;;;;;;;7.26;36.60;99686.34;4400279;32;20315;-72
2022/03/04 01:12:29;;;;;;;;;;;;;;;7.40;36.82;99695.31;4400890;32;19993;-72
2022/03/04 01:14:56;;;;;;;;;;;;;;;7.58;35.56;99694.91;4400366;32;19981;-73
2022/03/04 01:17:24;;;;;;;;;;;;;;;7.41;36.66;99691.03;4395277;32;19986;-73
2022/03/04 01:19:51;;;;;;;;;;;;;;;7.46;36.38;99689.44;4400594;32;20016;-73
2022/03/04 01:22:18;;;;;;;;;;;;;;;7.41;36.56;99681.59;4415619;32;19978;-72
2022/03/04 01:24:45;;;;;;;;;;;;;;;7.59;36.16;99681.19;4415904;32;20020;-72
2022/03/04 01:27:11;;;;;;;;;;;;;;;7.36;36.92;99678.03;4415972;32;19969;-72
2022/03/04 01:29:38;;;;;;;;;;;;;;;7.52;36.55;99683.56;4403791;32;19989;-73
2022/03/04 01:32:05;;;;;;;;;;;;;;;7.51;37.10;99676.69;4424068;32;19982;-73
2022/03/04 01:34:32;;;;;;;;;;;;;;;7.53;37.54;99675.00;4416248;32;19970;-73
2022/03/04 01:36:59;;;;;;;;;;;;;;;7.46;38.13;99680.00;4421597;32;19982;-73
2022/03/04 01:39:26;;;;;;;;;;;;;;;7.64;36.73;99676.16;4423008;32;20089;-72
2022/03/04 01:41:53;;;;;;;;;;;;;;;7.57;36.38;99674.28;4428244;32;20293;-72
2022/03/04 01:44:20;;;;;;;;;;;;;;;7.48;37.05;99671.47;4420556;32;20287;-72
2022/03/04 01:46:47;;;;;;;;;;;;;;;7.52;37.39;99675.84;4427475;32;19998;-73
2022/03/04 01:49:14;;;;;;;;;;;;;;;7.50;37.18;99669.78;4430003;32;19994;-73
2022/03/04 01:51:41;;;;;;;;;;;;;;;7.66;37.09;99671.94;4430201;32;19996;-72
2022/03/04 01:54:08;;;;;;;;;;;;;;;7.61;37.27;99668.34;4424182;32;19977;-73
2022/03/04 01:56:35;;;;;;;;;;;;;;;7.42;36.40;99667.88;4433193;32;20119;-73
2022/03/04 01:59:02;;;;;;;;;;;;;;;7.39;36.71;99667.81;4422833;32;20388;-73
2022/03/04 02:01:29;;;;;;;;;;;;;;;7.37;37.38;99679.78;4415793;32;19970;-72
2022/03/04 02:03:56;;;;;;;;;;;;;;;7.54;37.46;99681.94;4415443;32;20256;-73
2022/03/04 02:06:23;;;;;;;;;;;;;;;7.45;38.16;99675.69;4426463;32;20362;-73
2022/03/04 02:08:49;;;;;;;;;;;;;;;7.61;38.08;99683.81;4430851;32;19993;-72
2022/03/04 02:11:16;;;;;;;;;;;;;;;7.64;38.28;99678.75;4430894;32;19988;-72
2022/03/04 02:13:43;;;;;;;;;;;;;;;7.36;39.25;99683.16;4430646;32;20039;-72
2022/03/04 02:16:22;;;;;;;;;;;;;;;7.62;38.47;99680.41;4425225;32;20342;-72
2022/03/04 02:18:49;;;;;;;;;;;;;;;7.43;38.90;99687.69;4440884;32;19981;-72
2022/03/04 02:21:16;;;;;;;;;;;;;;;7.71;37.99;99685.78;4431058;32;19992;-72
2022/03/04 02:23:43;;;;;;;;;;;;;;;7.37;39.43;99677.22;4428403;32;20379;-73
2022/03/04 02:26:10;;;;;;;;;;;;;;;7.58;40.79;99681.16;4431114;32;19996;-73
2022/03/04 02:28:37;;;;;;;;;;;;;;;7.51;41.13;99680.13;4424727;32;20027;-75
2022/03/04 02:31:04;;;;;;;;;;;;;;;7.10;42.82;99689.34;4432872;32;19995;-73
2022/03/04 02:33:31;;;;;;;;;;;;;;;7.37;42.64;99682.38;4429037;32;20000;-72
2022/03/04 02:36:00;;;;;;;;;;;;;;;7.38;42.83;99681.53;4424216;32;19986;-72
2022/03/04 02:38:27;;;;;;;;;;;;;;;7.42;43.00;99678.19;4415247;32;19981;-72
2022/03/04 02:40:54;;;;;;;;;;;;;;;7.45;43.47;99687.69;4419397;32;19973;-72
2022/03/04 02:43:21;;;;;;;;;;;;;;;7.42;43.33;99691.06;4422148;32;20009;-72
2022/03/04 02:45:49;;;;;;;;;;;;;;;7.48;43.54;99694.63;4424278;32;20019;-72
2022/03/04 02:48:16;;;;;;;;;;;;;;;7.41;43.64;99694.47;4428985;32;19981;-73
2022/03/04 02:50:43;;;;;;;;;;;;;;;7.42;43.59;99693.63;4430036;32;20335;-72
2022/03/04 02:53:12;;;;;;;;;;;;;;;7.51;43.52;99697.28;4425599;32;20037;-72
2022/03/04 02:55:39;;;;;;;;;;;;;;;7.43;43.54;99695.41;4420352;32;20000;-72
2022/03/04 02:58:06;;;;;;;;;;;;;;;7.28;43.83;99689.84;4414993;32;20428;-72
2022/03/04 03:00:32;;;;;;;;;;;;;;;7.32;43.74;99694.22;4414907;32;323474;-73
2022/03/04 03:03:00;;;;;;;;;;;;;;;7.41;43.41;99697.06;4423334;32;19982;-72
2022/03/04 03:05:27;;;;;;;;;;;;;;;7.55;43.08;99699.09;4416927;32;19977;-72
2022/03/04 03:07:53;;;;;;;;;;;;;;;7.44;43.37;99711.72;4425845;32;20355;-72
2022/03/04 03:10:20;;;;;;;;;;;;;;;7.45;43.36;99709.16;4429123;32;20451;-73
2022/03/04 03:12:47;;;;;;;;;;;;;;;7.22;44.05;99705.13;4425726;32;20004;-72
2022/03/04 03:15:15;;;;;;;;;;;;;;;7.29;43.86;99704.44;4421171;32;19997;-73
2022/03/04 03:17:43;;;;;;;;;;;;;;;6.99;44.74;99700.22;4416937;32;19982;-72
2022/03/04 03:20:10;;;;;;;;;;;;;;;6.95;44.84;99700.94;4416881;32;20420;-73
2022/03/04 03:22:36;;;;;;;;;;;;;;;6.74;45.41;99705.47;4416765;32;19982;-72
2022/03/04 03:25:04;;;;;;;;;;;;;;;6.87;45.29;99706.72;4434218;32;19996;-72
2022/03/04 03:27:30;;;;;;;;;;;;;;;6.70;45.85;99713.91;4432255;32;19977;-72
2022/03/04 03:29:57;;;;;;;;;;;;;;;6.85;45.46;99711.78;4428314;32;19996;-72
2022/03/04 03:32:24;;;;;;;;;;;;;;;7.08;44.89;99711.56;4423129;32;19982;-72
2022/03/04 03:34:51;;;;;;;;;;;;;;;6.96;45.15;99713.00;4416895;32;20429;-72
2022/03/04 03:37:19;;;;;;;;;;;;;;;6.99;45.00;99713.06;4416962;32;20464;-72
2022/03/04 03:39:46;;;;;;;;;;;;;;;7.11;44.82;99711.66;4430967;32;19992;-72
2022/03/04 03:42:13;;;;;;;;;;;;;;;7.07;44.78;99714.97;4428759;32;20001;-72
2022/03/04 03:44:40;;;;;;;;;;;;;;;7.03;44.88;99718.31;4426447;32;19977;-72
2022/03/04 03:47:07;;;;;;;;;;;;;;;6.97;45.01;99719.87;4430976;32;19974;-72
2022/03/04 03:49:34;;;;;;;;;;;;;;;6.98;44.87;99716.47;4431834;32;20001;-73
2022/03/04 03:52:00;;;;;;;;;;;;;;;7.16;44.54;99720.38;4427537;32;20019;-73
2022/03/04 03:54:27;;;;;;;;;;;;;;;7.06;44.73;99713.25;4418179;32;19978;-72
2022/03/04 03:56:54;;;;;;;;;;;;;;;7.12;44.58;99716.00;4426984;32;20059;-72
2022/03/04 03:59:21;;;;;;;;;;;;;;;7.19;44.29;99721.34;4427024;32;19978;-72
2022/03/04 04:01:48;;;;;;;;;;;;;;;7.11;44.47;99722.81;4431777;32;19986;-73
2022/03/04 04:04:17;;;;;;;;;;;;;;;7.12;44.48;99719.44;4420434;32;19981;-72
2022/03/04 04:06:44;;;;;;;;;;;;;;;7.12;44.76;99711.72;4429798;32;20416;-72
2022/03/04 04:09:10;;;;;;;;;;;;;;;7.34;44.04;99718.31;4436999;32;20019;-72
2022/03/04 04:11:38;;;;;;;;;;;;;;;7.25;44.24;99710.34;4437228;32;20092;-73
2022/03/04 04:14:07;;;;;;;;;;;;;;;7.37;43.93;99715.84;4429309;32;20333;-73
2022/03/04 04:16:34;;;;;;;;;;;;;;;7.35;43.81;99719.19;4436346;32;20363;-72
2022/03/04 04:19:02;;;;;;;;;;;;;;;7.44;43.36;99722.03;4416612;32;19985;-72
2022/03/04 04:21:29;;;;;;;;;;;;;;;7.36;43.64;99721.78;4423649;32;19974;-72
2022/03/04 04:23:56;;;;;;;;;;;;;;;7.41;43.54;99720.22;4417665;32;19970;-74
2022/03/04 04:26:23;;;;;;;;;;;;;;;7.29;43.79;99725.03;4417983;32;20020;-73
2022/03/04 04:28:51;;;;;;;;;;;;;;;7.23;43.90;99722.28;4438532;32;20119;-72
2022/03/04 04:31:18;;;;;;;;;;;;;;;7.33;43.89;99721.72;4421818;32;20053;-73
2022/03/04 04:33:45;;;;;;;;;;;;;;;7.35;43.87;99727.78;4429933;32;20008;-72
2022/03/04 04:36:12;;;;;;;;;;;;;;;7.32;43.97;99722.56;4422513;32;20041;-73
2022/03/04 04:38:38;;;;;;;;;;;;;;;7.23;44.21;99728.31;4427680;32;20015;-73
2022/03/04 04:41:07;;;;;;;;;;;;;;;7.28;44.11;99735.31;4424340;32;19990;-73
2022/03/04 04:43:33;;;;;;;;;;;;;;;7.09;44.35;99733.94;4432781;32;20054;-74
2022/03/04 04:46:00;;;;;;;;;;;;;;;7.16;44.37;99735.84;4428513;32;19989;-73
2022/03/04 04:48:28;;;;;;;;;;;;;;;6.98;44.63;99737.03;4423993;32;19988;-72
2022/03/04 04:50:56;;;;;;;;;;;;;;;6.92;44.75;99752.34;4421791;32;19977;-72
2022/03/04 04:53:22;;;;;;;;;;;;;;;6.93;44.56;99754.06;4431764;32;19978;-73
2022/03/04 04:55:49;;;;;;;;;;;;;;;6.76;45.09;99760.41;4426996;32;19978;-72
2022/03/04 04:58:16;;;;;;;;;;;;;;;6.80;45.12;99764.84;4420097;32;19988;-72
2022/03/04 05:00:43;;;;;;;;;;;;;;;6.97;44.73;99766.19;4420248;32;20001;-72
2022/03/04 05:03:10;;;;;;;;;;;;;;;6.94;44.67;99760.94;4431601;32;20057;-72
2022/03/04 05:05:37;;;;;;;;;;;;;;;6.91;45.08;99768.56;4428672;32;19993;-71
2022/03/04 05:08:04;;;;;;;;;;;;;;;6.99;44.80;99769.69;4264173;32;5091730;-71
2022/03/04 05:10:31;;;;;;;;;;;;;;;6.44;46.67;99778.28;4429607;32;20000;-72
2022/03/04 05:12:58;;;;;;;;;;;;;;;6.78;45.58;99774.19;4426582;32;20031;-72
2022/03/04 05:15:24;;;;;;;;;;;;;;;6.91;45.05;99776.28;4419576;32;20187;-73
2022/03/04 05:17:52;;;;;;;;;;;;;;;6.72;45.87;99784.28;4427471;32;20323;-73
2022/03/04 05:20:18;;;;;;;;;;;;;;;6.57;46.69;99788.97;4420377;32;20252;-72
2022/03/04 05:22:45;;;;;;;;;;;;;;;6.72;46.50;99781.72;4427200;32;20012;-72
2022/03/04 05:25:13;;;;;;;;;;;;;;;6.62;46.44;99790.00;4414525;32;21050;-72
2022/03/04 05:27:45;;;;;;;;;;;;;;;6.82;45.83;99783.75;4427185;32;19998;-72
2022/03/04 05:30:12;;;;;;;;;;;;;;;6.76;46.01;99786.13;4417109;32;19990;-72
2022/03/04 05:32:39;;;;;;;;;;;;;;;6.76;45.50;99801.56;4425421;32;19982;-73
2022/03/04 05:35:06;;;;;;;;;;;;;;;6.61;46.15;99803.69;4418447;32;19994;-73
2022/03/04 05:37:38;;;;;;;;;;;;;;;6.83;45.49;99803.50;4430594;32;19977;-72
2022/03/04 05:40:05;;;;;;;;;;;;;;;6.75;45.90;99804.97;4426611;32;20016;-72
2022/03/04 05:42:31;;;;;;;;;;;;;;;6.98;44.87;99809.09;4418292;32;19973;-72
2022/03/04 05:44:58;;;;;;;;;;;;;;;6.76;45.71;99811.84;4419667;32;19994;-72
2022/03/04 05:47:25;;;;;;;;;;;;;;;6.91;45.62;99817.47;4431348;32;20031;-71
2022/03/04 05:49:52;;;;;;;;;;;;;;;6.96;45.67;99815.91;4431398;32;19978;-74
2022/03/04 05:52:19;;;;;;;;;;;;;;;6.95;46.15;99819.28;4437027;32;20031;-73
2022/03/04 05:54:46;;;;;;;;;;;;;;;6.99;45.46;99822.88;4427870;32;20431;-72
2022/03/04 05:57:13;;;;;;;;;;;;;;;7.13;44.68;99833.56;4429949;32;20072;-72
2022/03/04 05:59:40;;;;;;;;;;;;;;;7.13;44.77;99829.28;4430263;32;19977;-72
2022/03/04 06:02:07;;;;;;;;;;;;;;;7.12;45.29;99836.97;4429694;32;19997;-74
2022/03/04 06:04:34;;;;;;;;;;;;;;;6.84;46.36;99833.56;4438359;32;19989;-71
2022/03/04 06:07:00;;;;;;;;;;;;;;;6.97;46.19;99838.25;4435613;32;20028;-74
2022/03/04 06:09:28;;;;;;;;;;;;;;;6.85;46.60;99837.84;4429103;32;20772;-78
2022/03/04 06:11:56;;;;;;;;;;;;;;;6.94;46.01;99838.16;4430845;32;20335;-74
2022/03/04 06:14:22;;;;;;;;;;;;;;;7.22;45.90;99844.12;4425960;32;20327;-74
2022/03/04 06:16:49;;;;;;;;;;;;;;;6.87;46.11;99843.94;4419788;32;19989;-76
2022/03/04 06:19:16;;;;;;;;;;;;;;;6.92;45.92;99844.97;4415243;32;20320;-76
2022/03/04 06:21:43;;;;;;;;;;;;;;;7.07;45.92;99853.97;4415422;32;19985;-77
2022/03/04 06:24:11;;;;;;;;;;;;;;;7.23;44.58;99851.88;4416560;32;19978;-74
2022/03/04 06:26:38;;;;;;;;;;;;;;;7.21;44.75;99852.66;4414025;32;19970;-75
2022/03/04 06:29:05;;;;;;;;;;;;;;;7.16;44.68;99859.38;4415211;32;19974;-75
2022/03/04 06:31:31;;;;;;;;;;;;;;;7.33;44.64;99863.31;4415420;32;19981;-77
2022/03/04 06:33:59;;;;;;;;;;;;;;;7.25;44.44;99862.25;4412665;32;19994;-75
2022/03/04 06:36:25;;;;;;;;;;;;;;;7.27;44.32;99868.28;4414185;32;19977;-75
2022/03/04 06:38:52;;;;;;;;;;;;;;;7.23;44.10;99869.03;4415940;32;20279;-75
2022/03/04 06:41:19;;;;;;;;;;;;;;;7.36;43.10;99871.13;4420837;32;19981;-76
2022/03/04 06:43:47;;;;;;;;;;;;;;;7.39;43.04;99873.81;4432803;32;20030;-76
2022/03/04 06:46:16;;;;;;;;;;;;;;;7.45;42.94;99879.13;4417208;32;20486;-77
2022/03/04 06:48:43;;;;;;;;;;;;;;;7.45;42.90;99878.28;4424594;32;20000;-77
2022/03/04 06:51:10;;;;;;;;;;;;;;;7.48;42.79;99877.50;4421878;32;20421;-78
2022/03/04 06:53:36;;;;;;;;;;;;;;;7.61;42.30;99875.31;4428724;32;19978;-78
2022/03/04 06:56:04;;;;;;;;;;;;;;;7.47;43.15;99876.63;4415242;32;20000;-75
2022/03/04 06:58:31;;;;;;;;;;;;;;;7.59;43.64;99878.66;4421475;32;19994;-74
2022/03/04 07:00:58;;;;;;;;;;;;;;;7.65;43.62;99881.41;4417375;32;19989;-75
2022/03/04 07:03:26;;;;;;;;;;;;;;;7.64;43.78;99874.53;4391405;32;780279;-74
2022/03/04 07:05:52;;;;;;;;;;;;;;;7.77;42.68;99876.59;4422847;32;20072;-75
2022/03/04 07:08:19;;;;;;;;;;;;;;;7.75;43.70;99885.97;4414847;32;19981;-76
2022/03/04 07:10:48;;;;;;;;;;;;;;;7.96;43.43;99887.44;4416764;32;20271;-76
2022/03/04 07:13:15;;;;;;;;;;;;;;;7.93;44.00;99894.22;4419359;32;20413;-76
2022/03/04 07:15:42;;;;;;;;;;;;;;;7.90;43.77;99889.00;4426586;32;19978;-77
2022/03/04 07:18:10;;;;;;;;;;;;;;;8.15;42.93;99892.25;4413356;32;20009;-76
2022/03/04 07:20:37;;;;;;;;;;;;;;;7.89;44.49;99896.69;4430558;32;19981;-76
2022/03/04 07:23:04;;;;;;;;;;;;;;;8.23;42.54;99892.44;4429994;32;19985;-77
2022/03/04 07:25:31;;;;;;;;;;;;;;;8.32;43.18;99896.13;4424801;32;19965;-80
2022/03/04 07:27:57;;;;;;;;;;;;;;;8.32;42.96;99898.69;4415865;32;20418;-76
2022/03/04 07:30:24;;;;;;;;;;;;;;;8.30;42.65;99905.53;4425870;32;20013;-79
2022/03/04 07:32:51;;;;;;;;;;;;;;;8.30;42.66;99902.97;4427875;32;20339;-77
2022/03/04 07:35:18;;;;;;;;;;;;;;;8.35;42.39;99903.06;4422323;32;19985;-80
2022/03/04 07:37:45;;;;;;;;;;;;;;;8.55;42.30;99911.34;4426231;32;19982;-81
2022/03/04 07:40:14;;;;;;;;;;;;;;;8.43;42.68;99913.62;4428129;32;19981;-77
2022/03/04 07:42:40;;;;;;;;;;;;;;;8.69;41.69;99915.16;4425640;32;20287;-76
2022/03/04 07:45:08;;;;;;;;;;;;;;;8.77;41.78;99908.47;4423027;32;19977;-76
2022/03/04 07:47:36;;;;;;;;;;;;;;;8.79;41.63;99917.13;4431671;32;19989;-77
2022/03/04 07:50:03;;;;;;;;;;;;;;;8.38;41.48;99914.38;4440783;32;19989;-76
2022/03/04 07:52:31;;;;;;;;;;;;;;;8.88;41.21;99915.63;4424900;32;20322;-76
2022/03/04 07:55:03;;;;;;;;;;;;;;;8.96;40.95;99919.22;4429809;32;20004;-77
2022/03/04 07:57:30;;;;;;;;;;;;;;;8.90;40.83;99919.09;4424993;32;20270;-78
2022/03/04 07:59:58;;;;;;;;;;;;;;;8.94;40.84;99931.25;4394851;32;19978;-76
2022/03/04 08:02:25;;;;;;;;;;;;;;;8.89;41.55;99940.59;4408146;32;20287;-77
2022/03/04 08:04:53;;;;;;;;;;;;;;;8.55;42.61;99937.16;4394347;32;19982;-78
2022/03/04 08:07:20;;;;;;;;;;;;;;;8.67;42.72;99937.47;4412093;32;19982;-76
2022/03/04 08:09:48;;;;;;;;;;;;;;;8.57;43.15;99945.81;4399383;32;19990;-80
2022/03/04 08:12:16;;;;;;;;;;;;;;;8.68;42.78;99944.38;4400090;32;20081;-75
2022/03/04 08:14:42;;;;;;;;;;;;;;;8.52;43.37;99947.37;4387470;32;19970;-78
2022/03/04 08:17:09;;;;;;;;;;;;;;;8.48;43.78;99948.16;4391437;32;20072;-79
2022/03/04 08:19:39;;;;;;;;;;;;;;;8.47;44.29;99954.16;4385333;32;19983;-77
2022/03/04 08:22:06;;;;;;;;;;;;;;;8.22;45.06;99952.59;4385429;32;19991;-80
2022/03/04 08:24:52;;;;;;;;;;;;;;;8.31;45.01;99958.88;4387469;32;20322;-77
2022/03/04 08:27:19;;;;;;;;;;;;;;;8.51;44.46;99955.97;4388562;32;20343;-78
2022/03/04 08:29:45;;;;;;;;;;;;;;;8.57;44.25;99950.97;4383570;32;20026;-79
2022/03/04 08:32:13;;;;;;;;;;;;;;;8.52;44.68;99957.69;4384889;32;19997;-77
2022/03/04 08:34:39;;;;;;;;;;;;;;;8.54;44.40;99950.88;4392064;32;19978;-79
2022/03/04 08:37:06;;;;;;;;;;;;;;;8.52;44.26;99966.34;4387773;32;20040;-78
2022/03/04 08:39:33;;;;;;;;;;;;;;;8.44;44.64;99965.25;4395834;32;20309;-76
2022/03/04 08:42:05;;;;;;;;;;;;;;;8.44;44.81;99959.22;4389042;32;20396;-78
2022/03/04 08:44:32;;;;;;;;;;;;;;;8.26;45.46;99970.75;4393764;32;20319;-79
2022/03/04 08:47:00;;;;;;;;;;;;;;;8.42;45.26;99966.03;4394136;32;20001;-80
2022/03/04 08:49:27;;;;;;;;;;;;;;;8.36;45.41;99965.03;4385596;32;19995;-79
2022/03/04 08:51:54;;;;;;;;;;;;;;;8.32;45.54;99968.34;4396208;32;20039;-76
2022/03/04 08:54:21;;;;;;;;;;;;;;;8.46;45.15;99967.88;4385505;32;20020;-76
2022/03/04 08:56:47;;;;;;;;;;;;;;;8.45;45.20;99973.88;4385082;32;20017;-78
2022/03/04 08:59:14;;;;;;;;;;;;;;;8.52;45.11;99970.59;4396746;32;19982;-77
2022/03/04 09:01:41;;;;;;;;;;;;;;;8.57;45.24;99966.44;4385724;32;19974;-77
2022/03/04 09:04:08;;;;;;;;;;;;;;;8.64;44.92;99973.50;4393854;32;20010;-77
2022/03/04 09:06:35;;;;;;;;;;;;;;;8.56;44.92;99967.28;4385348;32;20265;-80
2022/03/04 09:09:02;;;;;;;;;;;;;;;8.83;44.39;99970.56;4385924;32;20001;-77
2022/03/04 09:11:29;;;;;;;;;;;;;;;8.88;45.18;99972.41;4385606;32;20016;-78
2022/03/04 09:13:56;;;;;;;;;;;;;;;8.85;44.63;99968.91;4385274;32;20386;-80
2022/03/04 09:16:23;;;;;;;;;;;;;;;9.05;43.32;99971.97;4385219;32;20494;-78
2022/03/04 09:18:49;;;;;;;;;;;;;;;9.10;43.23;99968.63;4386119;32;20474;-82
2022/03/04 09:21:16;;;;;;;;;;;;;;;9.15;43.05;99978.22;4392576;32;19982;-78
2022/03/04 09:23:43;;;;;;;;;;;;;;;9.07;43.29;99979.75;4386231;32;19970;-77
2022/03/04 09:26:10;;;;;;;;;;;;;;;9.23;42.81;99979.28;4392679;32;19990;-77
2022/03/04 09:28:37;;;;;;;;;;;;;;;9.12;43.56;99975.56;4392054;32;19974;-80
2022/03/04 09:31:08;;;;;;;;;;;;;;;9.12;44.14;99972.97;4396863;32;19986;-78
2022/03/04 09:33:36;;;;;;;;;;;;;;;9.42;42.17;99977.16;4397892;32;20328;-80
2022/03/04 09:36:05;;;;;;;;;;;;;;;9.56;41.31;99980.91;4396188;32;20049;-79
2022/03/04 09:38:34;;;;;;;;;;;;;;;9.47;41.71;99985.84;4399258;32;20024;-80
2022/03/04 09:41:03;;;;;;;;;;;;;;;9.62;40.66;99986.19;4400594;32;19993;-76
2022/03/04 09:43:30;;;;;;;;;;;;;;;9.78;40.85;99993.44;4393733;32;19975;-77
2022/03/04 09:45:56;;;;;;;;;;;;;;;9.96;39.38;99986.94;4402983;32;20041;-80
2022/03/04 09:48:24;;;;;;;;;;;;;;;9.51;41.23;99992.84;4385312;32;19986;-80
2022/03/04 09:50:51;;;;;;;;;;;;;;;9.90;40.52;99989.41;4385056;32;20316;-78
2022/03/04 09:53:18;;;;;;;;;;;;;;;9.96;40.21;99986.94;4388046;32;20027;-76
2022/03/04 09:55:44;;;;;;;;;;;;;;;9.98;40.01;99985.25;4393707;32;19983;-79
2022/03/04 09:58:12;;;;;;;;;;;;;;;9.65;41.44;99988.84;4396632;32;21437;-78
2022/03/04 10:00:39;;;;;;;;;;;;;;;9.61;42.66;99984.47;4398554;32;19982;-78
2022/03/04 10:03:11;;;;;;;;;;;;;;;9.72;41.43;99990.72;4385843;32;20349;-77
2022/03/04 10:05:53;;;;;;;;;;;;;;;9.97;40.56;99984.38;4398278;32;20001;-79
2022/03/04 10:08:21;;;;;;;;;;;;;;;9.97;40.62;99983.50;4394943;32;19974;-79
2022/03/04 10:10:51;;;;;;;;;;;;;;;10.12;41.11;99989.00;4410150;32;19990;-81
2022/03/04 10:13:18;;;;;;;;;;;;;;;10.17;40.56;99981.31;4403423;32;20359;-77
2022/03/04 10:15:55;;;;;;;;;;;;;;;9.99;42.11;99981.84;4393471;32;19994;-77
2022/03/04 10:18:25;;;;;;;;;;;;;;;10.32;40.05;99980.78;4396655;32;20008;-82
2022/03/04 10:20:54;;;;;;;;;;;;;;;10.12;41.27;99976.06;4385364;32;19993;-79
2022/03/04 10:23:22;;;;;;;;;;;;;;;10.37;40.34;99976.56;4388433;32;19994;-81
2022/03/04 10:25:50;;;;;;;;;;;;;;;10.02;41.50;99981.91;4391345;32;19974;-79
2022/03/04 10:28:17;;;;;;;;;;;;;;;9.86;42.39;99974.62;4385281;32;20001;-79
2022/03/04 10:30:45;;;;;;;;;;;;;;;10.44;39.98;99981.03;4385275;32;19990;-81
2022/03/04 10:33:22;;;;;;;;;;;;;;;10.14;41.00;99976.94;4396615;32;20073;-79
2022/03/04 10:36:06;;;;;;;;;;;;;;;10.31;40.15;99973.88;4385281;32;20434;-77
2022/03/04 10:38:34;;;;;;;;;;;;;;;10.47;39.78;99970.72;4394271;32;19991;-79
2022/03/04 10:41:20;;;;;;;;;;;;;;;10.12;41.41;99973.47;4409801;32;20012;-81
2022/03/04 10:43:48;;;;;;;;;;;;;;;10.61;39.41;99973.56;4405642;32;19988;-79
2022/03/04 10:46:15;;;;;;;;;;;;;;;10.10;41.36;99980.31;4386820;32;19994;-80
2022/03/04 10:48:51;;;;;;;;;;;;;;;10.25;41.40;99967.69;4400243;32;20008;-78
2022/03/04 10:51:32;;;;;;;;;;;;;;;10.09;42.48;99970.81;4396402;32;19992;-78
2022/03/04 10:54:15;;;;;;;;;;;;;;;10.23;42.37;99964.19;4400540;32;19975;-79
2022/03/04 10:56:52;;;;;;;;;;;;;;;10.38;42.02;99970.56;4408702;32;19981;-79
2022/03/04 10:59:19;;;;;;;;;;;;;;;10.07;43.05;99969.03;4400125;32;20032;-78
2022/03/04 11:01:49;;;;;;;;;;;;;;;10.66;40.73;99962.44;4406537;32;20347;-76
2022/03/04 11:04:17;;;;;;;;;;;;;;;10.39;41.70;99967.12;4399930;32;20041;-81
2022/03/04 11:06:47;;;;;;;;;;;;;;;10.59;40.12;99970.97;4398504;32;20315;-78
2022/03/04 11:09:15;;;;;;;;;;;;;;;9.59;43.83;99975.78;4406115;32;20000;-78
2022/03/04 11:11:43;;;;;;;;;;;;;;;9.58;43.51;99970.59;4410550;32;20031;-80
2022/03/04 11:14:12;;;;;;;;;;;;;;;9.83;44.23;99967.72;4399502;32;19974;-81
2022/03/04 11:16:39;;;;;;;;;;;;;;;9.98;42.95;99965.41;4398316;32;20128;-81
2022/03/04 11:19:07;;;;;;;;;;;;;;;10.32;41.85;99970.44;4406167;32;19977;-79
2022/03/04 11:21:33;;;;;;;;;;;;;;;10.41;42.58;99961.13;4402920;32;19978;-80
2022/03/04 11:24:01;;;;;;;;;;;;;;;10.13;43.27;99967.44;4401524;32;19970;-81
2022/03/04 11:26:29;;;;;;;;;;;;;;;10.32;42.07;99963.53;4401873;32;19978;-76
2022/03/04 11:28:56;;;;;;;;;;;;;;;10.47;41.54;99955.19;4404167;32;19985;-77
2022/03/04 11:31:25;;;;;;;;;;;;;;;10.58;41.07;99958.84;4399640;32;20706;-75
2022/03/04 11:33:52;;;;;;;;;;;;;;;10.25;42.67;99965.09;4401581;32;19978;-74
2022/03/04 11:36:27;;;;;;;;;;;;;;;10.33;42.92;99959.22;4401629;32;20012;-75
2022/03/04 11:39:04;;;;;;;;;;;;;;;10.43;42.25;99963.72;4410535;32;20069;-76
2022/03/04 11:41:37;;;;;;;;;;;;;;;10.10;44.19;99964.81;4415694;32;20335;-76
2022/03/04 11:44:10;;;;;;;;;;;;;;;10.38;43.37;99963.66;4414448;32;19966;-76
2022/03/04 11:46:42;;;;;;;;;;;;;;;10.56;42.68;99963.13;4403274;32;19986;-76
2022/03/04 11:49:25;;;;;;;;;;;;;;;10.83;42.04;99949.78;4401675;32;20350;-80
2022/03/04 11:52:07;;;;;;;;;;;;;;;10.69;42.26;99954.75;4408628;32;19978;-78
2022/03/04 11:54:38;;;;;;;;;;;;;;;10.94;40.93;99955.13;4405490;32;19974;-80
2022/03/04 11:57:17;;;;;;;;;;;;;;;11.28;39.49;99951.34;4401396;32;20001;-76
2022/03/04 11:59:51;;;;;;;;;;;;;;;11.58;38.34;99950.94;4407793;32;20324;-80
2022/03/04 12:02:18;;;;;;;;;;;;;;;11.70;37.32;99951.94;4416814;32;20342;-78
2022/03/04 12:04:46;;;;;;;;;;;;;;;11.46;37.88;99950.75;4415072;32;19970;-79
2022/03/04 12:07:13;;;;;;;;;;;;;;;10.83;40.28;99959.28;4411980;32;20373;-79
2022/03/04 12:09:51;;;;;;;;;;;;;;;10.17;42.66;99964.06;4401420;32;20029;-79
2022/03/04 12:12:22;;;;;;;;;;;;;;;10.66;40.82;99959.88;4400088;32;20271;-79
2022/03/04 12:14:49;;;;;;;;;;;;;;;10.63;41.50;99962.41;4407256;32;19982;-80
2022/03/04 12:17:17;;;;;;;;;;;;;;;10.51;41.61;99963.91;4403268;32;20372;-81
2022/03/04 12:19:44;;;;;;;;;;;;;;;10.11;42.34;99970.84;4403461;32;19986;-80
2022/03/04 12:22:12;;;;;;;;;;;;;;;10.06;42.64;99968.19;4406264;32;19982;-82
2022/03/04 12:24:54;;;;;;;;;;;;;;;10.10;42.05;99975.16;4400052;32;20028;-80
2022/03/04 12:27:41;;;;;;;;;;;;;;;10.53;40.10;99964.78;4392321;32;20032;-82
2022/03/04 12:30:19;;;;;;;;;;;;;;;10.49;40.91;99969.03;4400666;32;20737;-79
2022/03/04 12:32:49;;;;;;;;;;;;;;;10.45;41.16;99967.22;4400598;32;20346;-82
2022/03/04 12:35:16;;;;;;;;;;;;;;;10.49;41.18;99974.19;4410445;32;20295;-79
2022/03/04 12:37:44;;;;;;;;;;;;;;;10.39;41.53;99967.12;4412483;32;20037;-79
2022/03/04 12:40:16;;;;;;;;;;;;;;;10.54;41.01;99967.41;4401805;32;20347;-80
2022/03/04 12:42:53;;;;;;;;;;;;;;;10.25;42.07;99975.47;4409757;32;20391;-81
2022/03/04 12:45:26;;;;;;;;;;;;;;;10.63;41.11;99967.56;4408657;32;19970;-81
2022/03/04 12:47:53;;;;;;;;;;;;;;;10.76;40.39;99970.37;4416107;32;19981;-81
2022/03/04 12:50:28;;;;;;;;;;;;;;;10.80;40.17;99972.16;4412660;32;19986;-81
2022/03/04 12:52:55;;;;;;;;;;;;;;;10.67;40.83;99969.38;4399063;32;19993;-81
2022/03/04 12:55:22;;;;;;;;;;;;;;;10.73;41.19;99972.91;4403217;32;20038;-81
2022/03/04 12:57:50;;;;;;;;;;;;;;;10.81;42.72;99977.34;4406684;32;20096;-80
2022/03/04 13:00:18;;;;;;;;;;;;;;;10.54;43.88;99975.16;4407434;32;20089;-80